Data for 04/25/2009

Time Sea-Level Adjusted Pressure Absolute Pressure Temperature Relative Humidity Dew Point   
(mb) (inHg) (mb) (inHg) (C) (F) (%) (C) (F)
00:05 1015 29.97 844 24.92 -2.4 27.8 80 -5.4 22.3
00:10 1015 29.97 844 24.92 -2.5 27.5 80 -5.5 22.1
00:15 1015 29.97 844 24.92 -2.5 27.5 79 -5.6 21.9
00:20 1015 29.97 844 24.92 -2.5 27.6 79 -5.5 22
00:25 1015 29.97 844 24.92 -2.5 27.5 80 -5.5 22
00:30 1015 29.97 844 24.92 -2.7 27.1 79 -5.8 21.6
00:35 1015 29.97 844 24.92 -2.7 27.1 79 -5.8 21.6
00:40 1015 29.97 844 24.92 -2.8 27 79 -5.8 21.5
00:45 1015 29.97 844 24.92 -2.8 27 79 -5.9 21.4
00:50 1015 29.97 844 24.92 -2.6 27.2 78 -6 21.1
00:55 1015 29.97 844 24.92 -2.6 27.4 77 -6 21.2
01:00 1015 29.97 844 24.92 -2.6 27.4 77 -6 21.3
01:05 1015 29.97 844 24.92 -2.6 27.3 78 -6 21.2
01:10 1015 29.97 844 24.92 -2.6 27.2 78 -6 21.1
01:15 1015 29.97 844 24.92 -2.7 27.2 78 -6 21.2
01:20 1015 29.97 844 24.92 -2.8 27 78 -6 21.1
01:25 1015 29.97 844 24.92 -2.9 26.8 79 -6 21.2
01:30 1015 29.97 844 24.92 -3 26.5 80 -6.1 21.1
01:35 1015 29.97 844 24.92 -3.1 26.4 80 -6.2 20.9
01:40 1015 29.97 844 24.92 -3.1 26.4 80 -6.1 20.9
01:45 1015 29.97 844 24.92 -3.1 26.4 80 -6.2 20.9
01:50 1015 29.97 844 24.92 -3.2 26.3 80 -6.2 20.9
01:55 1015 29.97 844 24.92 -3.3 26.1 80 -6.3 20.7
02:00 1015 29.97 844 24.92 -3.3 26.1 80 -6.3 20.7
02:05 1015 29.97 844 24.92 -3.4 25.9 80 -6.3 20.7
02:10 1015 29.97 844 24.92 -3.4 25.9 80 -6.3 20.6
02:15 1015 29.97 844 24.92 -3.5 25.7 81 -6.3 20.7
02:20 1015 29.97 844 24.92 -3.7 25.4 82 -6.4 20.5
02:25 1015 29.97 844 24.92 -3.7 25.3 82 -6.4 20.5
02:30 1015 29.97 844 24.92 -3.8 25.2 82 -6.5 20.3
02:35 1015 29.97 844 24.92 -3.6 25.5 81 -6.4 20.4
02:40 1015 29.97 844 24.92 -3.7 25.4 81 -6.4 20.5
02:45 1015 29.97 844 24.92 -3.7 25.3 82 -6.4 20.4
02:50 1015 29.97 844 24.92 -3.8 25.2 82 -6.4 20.4
02:55 1015 29.97 844 24.92 -3.9 24.9 82 -6.5 20.3
03:00 1015 29.97 844 24.92 -3.9 24.9 82 -6.6 20.2
03:05 1015 29.97 844 24.92 -3.9 25 82 -6.5 20.2
03:10 1015 29.97 844 24.92 -4 24.8 82 -6.7 20
03:15 1015 29.97 844 24.92 -4 24.9 81 -6.7 19.9
03:20 1015 29.97 844 24.92 -4.1 24.7 82 -6.7 19.9
03:25 1015 29.97 844 24.92 -4.1 24.6 82 -6.8 19.8
03:30 1015 29.97 844 24.92 -4.3 24.2 83 -6.9 19.6
03:35 1015 29.97 844 24.92 -4.3 24.3 82 -7 19.4
03:40 1015 29.97 844 24.92 -4.2 24.5 82 -6.9 19.6
03:45 1015 29.97 844 24.92 -4.1 24.5 81 -6.9 19.6
03:50 1015 29.97 844 24.92 -4.1 24.7 81 -6.9 19.6
03:55 1015 29.97 844 24.92 -4.1 24.7 80 -7 19.4
04:00 1015 29.97 844 24.92 -4 24.8 80 -7 19.4
04:05 1015 29.97 844 24.92 -4 24.9 80 -6.9 19.6
04:10 1015 29.97 844 24.92 -4.1 24.7 81 -6.9 19.5
04:15 1015 29.97 844 24.92 -4.3 24.3 81 -7 19.4
04:20 1015 29.97 844 24.92 -4.3 24.3 81 -7.1 19.3
04:25 1015 29.97 844 24.92 -4.3 24.2 81 -7.1 19.3
04:30 1015 29.97 844 24.92 -4.5 24 82 -7.1 19.3
04:35 1015 29.97 844 24.92 -4.5 24 82 -7.1 19.3
04:40 1015 29.97 844 24.92 -4.4 24 82 -7 19.4
04:45 1015 29.97 844 24.92 -4.4 24.2 81 -7.1 19.3
04:50 1015 29.97 844 24.92 -4.3 24.3 80 -7.1 19.2
04:55 1015 29.97 844 24.92 -4.3 24.3 81 -7.1 19.2
05:00 1015 29.97 844 24.92 -4.4 24.1 81 -7.2 19.1
05:05 1014 29.94 844 24.92 -4.4 24.1 81 -7.2 19
05:10 1015 29.97 844 24.92 -4.4 24 81 -7.2 19.1
05:15 1014 29.94 844 24.92 -4.5 23.9 81 -7.2 19
05:20 1014 29.94 844 24.92 -4.5 23.9 81 -7.2 19
05:25 1014 29.94 844 24.92 -4.6 23.7 82 -7.2 19.1
05:30 1014 29.94 844 24.92 -4.6 23.6 83 -7.2 19.1
05:35 1014 29.94 844 24.92 -4.6 23.8 82 -7.2 19
05:40 1014 29.94 844 24.92 -4.7 23.5 83 -7.3 18.9
05:45 1014 29.94 844 24.92 -4.9 23.3 82 -7.4 18.6
05:50 1014 29.94 844 24.92 -4.7 23.5 82 -7.4 18.8
05:55 1014 29.94 844 24.92 -4.9 23.2 82 -7.4 18.6
06:00 1014 29.94 843 24.89 -4.9 23.1 83 -7.5 18.6
06:05 1014 29.94 843 24.89 -5.2 22.7 83 -7.6 18.3
06:10 1014 29.94 843 24.89 -5.4 22.3 84 -7.7 18.1
06:15 1014 29.94 843 24.89 -5.4 22.3 84 -7.7 18.2
06:20 1014 29.94 843 24.89 -5.4 22.2 84 -7.7 18.1
06:25 1014 29.94 843 24.89 -5.4 22.4 83 -7.8 18
06:30 1014 29.94 843 24.89 -5.2 22.6 83 -7.7 18.2
06:35 1014 29.94 843 24.89 -5.1 22.7 83 -7.7 18.2
06:40 1014 29.94 843 24.89 -4.9 23.2 80 -7.8 18
06:45 1014 29.94 843 24.89 -4.6 23.8 79 -7.6 18.3
06:50 1014 29.94 843 24.89 -4.4 24.1 78 -7.6 18.3
06:55 1014 29.94 843 24.89 -4.5 24 79 -7.6 18.3
07:00 1014 29.94 843 24.89 -4.3 24.2 78 -7.7 18.2
07:05 1014 29.94 843 24.89 -4 24.7 77 -7.5 18.5
07:10 1014 29.94 843 24.89 -4 24.7 76 -7.7 18.1
07:15 1014 29.94 843 24.89 -3.7 25.3 75 -7.6 18.3
07:20 1014 29.94 843 24.89 -3.6 25.5 74 -7.7 18.2
07:25 1014 29.94 843 24.89 -3.4 25.8 74 -7.5 18.6
07:30 1014 29.94 843 24.89 -3.2 26.2 73 -7.5 18.5
07:35 1014 29.94 844 24.92 -3 26.7 71 -7.5 18.5
07:40 1014 29.94 844 24.92 -2.8 27 71 -7.3 18.8
07:45 1014 29.94 844 24.92 -2.7 27.1 70 -7.4 18.6
07:50 1014 29.94 844 24.92 -2.7 27.1 70 -7.5 18.5
07:55 1015 29.97 844 24.92 -2.5 27.6 69 -7.4 18.8
08:00 1014 29.94 844 24.92 -2.3 27.8 69 -7.4 18.8
08:05 1014 29.94 844 24.92 -2.3 27.8 69 -7.3 18.8
08:10 1014 29.94 843 24.89 -1.9 28.6 68 -7 19.4
08:15 1014 29.94 843 24.89 -1.9 28.5 66 -7.4 18.8
08:20 1014 29.94 843 24.89 -1.4 29.5 64 -7.4 18.8
08:25 1014 29.94 843 24.89 -1.2 29.9 63 -7.3 18.9
08:30 1014 29.94 843 24.89 -0.8 30.5 64 -6.9 19.7
08:35 1014 29.94 843 24.89 -1.2 29.8 66 -6.7 19.9
08:40 1014 29.94 844 24.92 -1.2 29.9 66 -6.7 19.9
08:45 1014 29.94 843 24.89 -0.6 30.9 61 -7.1 19.1
08:50 1014 29.94 843 24.89 0.3 32.5 60 -6.7 20
08:55 1014 29.94 843 24.89 0.3 32.6 59 -6.7 20
09:00 1014 29.94 843 24.89 0.6 33.1 58 -6.8 19.7
09:05 1014 29.94 843 24.89 1.2 34.2 58 -6.1 21
09:10 1014 29.94 843 24.89 1 33.9 60 -5.9 21.3
09:15 1014 29.94 843 24.89 0.5 32.8 59 -6.6 20.1
09:20 1014 29.94 843 24.89 0.9 33.6 58 -6.4 20.5
09:25 1014 29.94 843 24.89 1.4 34.6 54 -6.8 19.8
09:30 1014 29.94 843 24.89 2.3 36.1 51 -6.8 19.7
09:35 1014 29.94 843 24.89 2 35.7 52 -6.7 19.9
09:40 1014 29.94 843 24.89 2.1 35.8 53 -6.5 20.2
09:45 1014 29.94 843 24.89 2.1 35.7 52 -6.8 19.8
09:50 1014 29.94 843 24.89 2.6 36.7 49 -7 19.4
09:55 1014 29.94 843 24.89 3.6 38.5 46 -7 19.4
10:00 1014 29.94 843 24.89 3.5 38.3 47 -6.9 19.6
10:05 1014 29.94 843 24.89 4.2 39.5 46 -6.4 20.5
10:10 1014 29.94 843 24.89 4.9 40.8 43 -6.8 19.8
10:15 1014 29.94 843 24.89 4.7 40.5 46 -6 21.2
10:20 1014 29.94 843 24.89 3.9 39 46 -6.8 19.7
10:25 1014 29.94 843 24.89 3.2 37.7 46 -7.3 18.8
10:30 1014 29.94 843 24.89 4.3 39.7 44 -7 19.4
10:35 1014 29.94 843 24.89 3.4 38.1 49 -6.4 20.5
10:40 1014 29.94 843 24.89 3.5 38.3 47 -6.9 19.5
10:45 1013 29.91 843 24.89 4.4 39.9 44 -6.7 19.9
10:50 1013 29.91 843 24.89 5.5 41.9 40 -6.9 19.5
10:55 1013 29.91 843 24.89 5.8 42.4 40 -6.9 19.6
11:00 1013 29.91 843 24.89 5.9 42.7 41 -6.2 20.8
11:05 1013 29.91 843 24.89 5.7 42.3 42 -6.3 20.7
11:10 1013 29.91 843 24.89 5.3 41.5 42 -6.5 20.3
11:15 1013 29.91 843 24.89 5.4 41.8 43 -6.2 20.8
11:20 1013 29.91 842 24.86 5.5 41.9 44 -5.8 21.5
11:25 1013 29.91 842 24.86 4.7 40.5 47 -5.7 21.7
11:30 1013 29.91 842 24.86 5 41 45 -6 21.2
11:35 1013 29.91 842 24.86 5.8 42.4 40 -6.6 20
11:40 1013 29.91 842 24.86 5.9 42.6 42 -6 21.3
11:45 1013 29.91 842 24.86 5.8 42.4 43 -5.7 21.7
11:50 1013 29.91 842 24.86 5.8 42.5 42 -6.2 20.8
11:55 1013 29.91 842 24.86 5 41 43 -6.7 20
12:00 1013 29.91 842 24.86 5.7 42.3 41 -6.4 20.5
12:05 1013 29.91 842 24.86 6.1 43 40 -6.4 20.5
12:10 1013 29.91 842 24.86 5.6 42 44 -5.8 21.6
12:15 1013 29.91 842 24.86 4 39.1 48 -6.1 21
12:20 1013 29.91 842 24.86 3.7 38.7 46 -6.8 19.8
12:25 1013 29.91 842 24.86 3.7 38.7 46 -6.8 19.7
12:30 1013 29.91 842 24.86 3.9 38.9 45 -7 19.4
12:35 1013 29.91 842 24.86 3.8 38.9 46 -6.7 20
12:40 1012 29.88 842 24.86 4 39.1 44 -7.1 19.2
12:45 1012 29.88 842 24.86 4.6 40.3 45 -6.4 20.5
12:50 1012 29.88 842 24.86 4.7 40.5 46 -6 21.2
12:55 1012 29.88 841 24.83 5.5 41.9 42 -6.3 20.6
13:00 1012 29.88 841 24.83 6.2 43.1 42 -5.8 21.6
13:05 1012 29.88 841 24.83 6.1 43 39 -6.8 19.7
13:10 1012 29.88 841 24.83 6.4 43.6 40 -6.2 20.9
13:15 1012 29.88 841 24.83 6.7 44.1 39 -6.3 20.6
13:20 1012 29.88 841 24.83 7.2 44.9 41 -5.2 22.6
13:25 1012 29.88 841 24.83 6.7 44.1 41 -5.5 22
13:30 1012 29.88 841 24.83 7.7 45.8 38 -5.7 21.8
13:35 1012 29.88 841 24.83 7.5 45.4 40 -5.2 22.6
13:40 1012 29.88 841 24.83 7.4 45.4 44 -4.1 24.6
13:45 1012 29.88 841 24.83 8 46.4 38 -5.5 22.1
13:50 1012 29.88 841 24.83 6.8 44.2 41 -5.5 22.1
13:55 1012 29.88 841 24.83 7.7 45.9 37 -6.1 21
14:00 1012 29.88 841 24.83 8.2 46.7 38 -5.3 22.5
14:05 1012 29.88 841 24.83 7.9 46.1 37 -5.8 21.5
14:10 1012 29.88 841 24.83 8.2 46.8 39 -5.1 22.9
14:15 1012 29.88 841 24.83 8.5 47.3 37 -5.4 22.2
14:20 1011 29.85 841 24.83 8.6 47.5 36 -5.5 22.1
14:25 1011 29.85 841 24.83 8.8 47.9 32 -6.9 19.6
14:30 1011 29.85 841 24.83 7.7 45.9 31 -8.5 16.7
14:35 1011 29.85 841 24.83 8 46.3 29 -9.2 15.5
14:40 1011 29.85 841 24.83 8.9 48 33 -6.4 20.4
14:45 1011 29.85 841 24.83 9.5 49 30 -7.1 19.2
14:50 1011 29.85 840 24.81 9.9 49.7 31 -6.5 20.2
14:55 1011 29.85 840 24.81 9.6 49.2 31 -6.6 20.1
15:00 1011 29.85 840 24.81 8.6 47.5 32 -7.1 19.3
15:05 1011 29.85 840 24.81 8.2 46.7 31 -8.1 17.5
15:10 1011 29.85 840 24.81 8.8 47.9 30 -7.6 18.3
15:15 1011 29.85 840 24.81 8.7 47.6 32 -7 19.4
15:20 1011 29.85 840 24.81 8.1 46.5 33 -7.3 18.9
15:25 1011 29.85 840 24.81 8.5 47.2 35 -6.3 20.7
15:30 1011 29.85 840 24.81 8.6 47.5 30 -8 17.6
15:35 1011 29.85 840 24.81 8.3 46.9 34 -6.5 20.4
15:40 1011 29.85 840 24.81 7.9 46.1 32 -8 17.6
15:45 1011 29.85 840 24.81 8 46.4 30 -8.7 16.3
15:50 1011 29.85 840 24.81 8.3 46.9 28 -9 15.8
15:55 1011 29.85 840 24.81 9.2 48.6 30 -7.5 18.5
16:00 1011 29.85 840 24.81 9.8 49.6 29 -7.5 18.5
16:05 1011 29.85 840 24.81 8.7 47.6 29 -8.4 16.9
16:10 1011 29.85 840 24.81 8.6 47.5 31 -7.5 18.5
16:15 1011 29.85 840 24.81 9 48.2 28 -8.4 16.8
16:20 1011 29.85 840 24.81 9.7 49.4 29 -7.3 18.8
16:25 1011 29.85 840 24.81 9.9 49.8 28 -7.7 18.2
16:30 1011 29.85 840 24.81 10.4 50.7 26 -8.3 17.1
16:35 1011 29.85 840 24.81 10.6 51 27 -7.6 18.4
16:40 1010 29.83 840 24.81 10.6 51.1 27 -7.7 18.1
16:45 1010 29.83 840 24.81 10.6 51.2 29 -6.7 20
16:50 1010 29.83 840 24.81 10.6 51 27 -7.7 18.1
16:55 1010 29.83 840 24.81 9.7 49.5 25 -9.4 15.2
17:00 1010 29.83 840 24.81 9.6 49.2 28 -8.3 17.1
17:05 1010 29.83 840 24.81 9.5 49.1 30 -7.4 18.7
17:10 1010 29.83 840 24.81 9.3 48.8 30 -7.4 18.7
17:15 1010 29.83 840 24.81 9 48.2 31 -7.1 19.3
17:20 1010 29.83 840 24.81 8.6 47.4 31 -7.6 18.4
17:25 1011 29.85 840 24.81 7.8 46 31 -8.3 17
17:30 1011 29.85 840 24.81 7.4 45.2 33 -7.8 17.9
17:35 1010 29.83 840 24.81 7.6 45.6 31 -8.3 17
17:40 1010 29.83 840 24.81 7.3 45.1 32 -8.5 16.8
17:45 1010 29.83 840 24.81 7.1 44.8 34 -7.7 18.1
17:50 1011 29.85 840 24.81 7.5 45.4 34 -7.5 18.5
17:55 1011 29.85 840 24.81 7.6 45.7 31 -8.4 16.9
18:00 1011 29.85 840 24.81 7.5 45.4 33 -7.6 18.2
18:05 1011 29.85 840 24.81 7.9 46.2 32 -7.7 18.2
18:10 1011 29.85 840 24.81 8.2 46.7 33 -7.3 18.9
18:15 1011 29.85 840 24.81 8.2 46.8 33 -7.2 19.1
18:20 1011 29.85 840 24.81 8 46.4 34 -6.7 19.9
18:25 1011 29.85 840 24.81 8.1 46.5 35 -6.3 20.6
18:30 1011 29.85 840 24.81 8.1 46.5 33 -7.3 18.8
18:35 1011 29.85 840 24.81 8 46.4 33 -7.4 18.6
18:40 1011 29.85 840 24.81 7.8 46.1 34 -6.9 19.5
18:45 1011 29.85 840 24.81 7.8 46 37 -5.9 21.3
18:50 1011 29.85 840 24.81 7.5 45.5 38 -6 21.1
18:55 1011 29.85 840 24.81 7.6 45.8 34 -7.1 19.3
19:00 1011 29.85 840 24.81 7.7 45.8 34 -7.2 19.1
19:05 1011 29.85 840 24.81 7.8 46 35 -6.6 20.1
19:10 1011 29.85 840 24.81 7.7 45.8 37 -6.1 21
19:15 1011 29.85 840 24.81 7.7 45.8 38 -5.8 21.5
19:20 1011 29.85 840 24.81 7.2 45 40 -5.6 22
19:25 1011 29.85 840 24.81 6.9 44.3 44 -4.4 24
19:30 1011 29.85 840 24.81 6.4 43.5 47 -4 24.8
19:35 1011 29.85 840 24.81 6.3 43.3 39 -6.5 20.2
19:40 1011 29.85 840 24.81 6.5 43.7 43 -5.1 22.8
19:45 1011 29.85 840 24.81 6.5 43.7 47 -4 24.9
19:50 1011 29.85 840 24.81 6.2 43.2 50 -3.5 25.6
19:55 1011 29.85 840 24.81 6 42.8 50 -3.6 25.6
20:00 1011 29.85 840 24.81 5.9 42.6 51 -3.5 25.7
20:05 1011 29.85 840 24.81 5.9 42.7 46 -4.7 23.5
20:10 1011 29.85 840 24.81 6.1 43 44 -5.1 22.9
20:15 1011 29.85 840 24.81 6.1 43 48 -4 24.8
20:20 1011 29.85 840 24.81 5.9 42.6 48 -4.2 24.4
20:25 1011 29.85 840 24.81 5.5 41.9 52 -3.5 25.8
20:30 1011 29.85 840 24.81 5.1 41.2 55 -3.2 26.2
20:35 1011 29.85 840 24.81 4.9 40.9 55 -3.4 25.8
20:40 1011 29.85 840 24.81 4.8 40.7 53 -3.9 25
20:45 1011 29.85 840 24.81 5 40.9 52 -4 24.8
20:50 1011 29.85 840 24.81 5.1 41.2 50 -4.4 24.1
20:55 1011 29.85 840 24.81 5.1 41.2 49 -4.6 23.7
21:00 1011 29.85 840 24.81 4.9 40.9 51 -4.4 24.1
21:05 1011 29.85 841 24.83 4.5 40.2 53 -4.1 24.6
21:10 1011 29.85 841 24.83 4.3 39.7 54 -4.2 24.4
21:15 1011 29.85 841 24.83 4 39.2 55 -4.2 24.4
21:20 1011 29.85 841 24.83 3.9 39.1 53 -4.9 23.2
21:25 1012 29.88 841 24.83 3.9 39 54 -4.5 23.9
21:30 1012 29.88 841 24.83 3.9 39 53 -4.8 23.4
21:35 1012 29.88 841 24.83 3.9 39 55 -4.2 24.4
21:40 1012 29.88 841 24.83 3.7 38.7 56 -4.3 24.2
21:45 1012 29.88 841 24.83 3.6 38.5 54 -4.8 23.4
21:50 1012 29.88 841 24.83 3.7 38.6 51 -5.5 22
21:55 1012 29.88 841 24.83 4.1 39.3 52 -5 23.1
22:00 1012 29.88 841 24.83 4.2 39.6 52 -4.8 23.4
22:05 1012 29.88 841 24.83 3.9 39.1 53 -4.7 23.5
22:10 1012 29.88 841 24.83 3.9 39 56 -4.2 24.5
22:15 1012 29.88 841 24.83 4 39.1 58 -3.5 25.6
22:20 1012 29.88 841 24.83 3.5 38.3 61 -3.4 25.9
22:25 1012 29.88 841 24.83 3.4 38.1 59 -3.8 25.1
22:30 1012 29.88 841 24.83 3.3 37.9 58 -4.2 24.4
22:35 1012 29.88 841 24.83 3.2 37.7 62 -3.3 26
22:40 1012 29.88 841 24.83 3.1 37.5 61 -3.8 25.1
22:45 1012 29.88 841 24.83 3 37.5 55 -5.1 22.8
22:50 1012 29.88 841 24.83 3.8 38.9 51 -5.3 22.4
22:55 1012 29.88 841 24.83 3.9 39 55 -4.3 24.2
23:00 1012 29.88 841 24.83 3.7 38.7 53 -5 23
23:05 1012 29.88 841 24.83 3.9 38.9 49 -5.9 21.4
23:10 1012 29.88 841 24.83 4 39.1 45 -6.9 19.6
23:15 1012 29.88 841 24.83 4.1 39.5 51 -5.2 22.7
23:20 1012 29.88 841 24.83 3.9 39 51 -5.2 22.6
23:25 1012 29.88 841 24.83 3.9 39 51 -5.4 22.2
23:30 1012 29.88 841 24.83 3.7 38.7 53 -5 22.9
23:35 1012 29.88 841 24.83 3.7 38.6 56 -4.2 24.4
23:40 1012 29.88 841 24.83 3.6 38.5 55 -4.6 23.7
23:45 1012 29.88 841 24.83 3.7 38.7 54 -4.6 23.6
23:50 1012 29.88 841 24.83 3.7 38.6 54 -4.7 23.6
23:55 1012 29.88 841 24.83 3.5 38.2 56 -4.4 24.1
24:00 1012 29.88 841 24.83 3.4 38.1 56 -4.7 23.6